sensor_id;sensor_type;location;lat;lon;timestamp;P1;durP1;ratioP1;P2;durP2;ratioP2
32146;SDS011;32190;49.112;8.598;2023-01-23T00:05:20;2.05;;;1.83;;
32146;SDS011;32190;49.112;8.598;2023-01-23T00:11:11;2.20;;;2.10;;
32146;SDS011;32190;49.112;8.598;2023-01-23T00:17:05;2.00;;;1.80;;
32146;SDS011;32190;49.112;8.598;2023-01-23T00:22:55;2.17;;;1.98;;
32146;SDS011;32190;49.112;8.598;2023-01-23T00:28:46;2.60;;;2.40;;
32146;SDS011;32190;49.112;8.598;2023-01-23T00:34:37;2.70;;;2.20;;
32146;SDS011;32190;49.112;8.598;2023-01-23T00:40:28;2.25;;;2.05;;
32146;SDS011;32190;49.112;8.598;2023-01-23T00:46:19;1.92;;;1.83;;
32146;SDS011;32190;49.112;8.598;2023-01-23T00:52:10;2.22;;;1.95;;
32146;SDS011;32190;49.112;8.598;2023-01-23T00:58:01;2.67;;;2.45;;
32146;SDS011;32190;49.112;8.598;2023-01-23T01:03:52;2.22;;;1.80;;
32146;SDS011;32190;49.112;8.598;2023-01-23T01:09:43;1.98;;;1.63;;
32146;SDS011;32190;49.112;8.598;2023-01-23T01:15:34;2.70;;;1.90;;
32146;SDS011;32190;49.112;8.598;2023-01-23T01:21:25;2.00;;;1.90;;
32146;SDS011;32190;49.112;8.598;2023-01-23T01:27:16;2.00;;;1.90;;
32146;SDS011;32190;49.112;8.598;2023-01-23T01:33:06;2.60;;;2.00;;
32146;SDS011;32190;49.112;8.598;2023-01-23T01:38:57;2.22;;;2.03;;
32146;SDS011;32190;49.112;8.598;2023-01-23T01:44:50;2.40;;;1.90;;
32146;SDS011;32190;49.112;8.598;2023-01-23T01:50:45;2.63;;;2.38;;
32146;SDS011;32190;49.112;8.598;2023-01-23T01:56:40;2.72;;;2.53;;
32146;SDS011;32190;49.112;8.598;2023-01-23T02:02:36;2.67;;;1.92;;
32146;SDS011;32190;49.112;8.598;2023-01-23T02:08:34;2.25;;;2.05;;
32146;SDS011;32190;49.112;8.598;2023-01-23T02:14:39;1.98;;;1.83;;
32146;SDS011;32190;49.112;8.598;2023-01-23T02:20:30;2.40;;;2.20;;
32146;SDS011;32190;49.112;8.598;2023-01-23T02:26:27;2.30;;;2.10;;
32146;SDS011;32190;49.112;8.598;2023-01-23T02:32:22;2.75;;;2.25;;
32146;SDS011;32190;49.112;8.598;2023-01-23T02:38:16;1.70;;;1.60;;
32146;SDS011;32190;49.112;8.598;2023-01-23T02:44:14;2.63;;;2.35;;
32146;SDS011;32190;49.112;8.598;2023-01-23T02:50:14;2.25;;;2.05;;
32146;SDS011;32190;49.112;8.598;2023-01-23T02:56:06;1.98;;;1.50;;
32146;SDS011;32190;49.112;8.598;2023-01-23T03:01:57;1.73;;;1.63;;
32146;SDS011;32190;49.112;8.598;2023-01-23T03:07:47;1.70;;;1.60;;
32146;SDS011;32190;49.112;8.598;2023-01-23T03:13:38;2.17;;;1.98;;
32146;SDS011;32190;49.112;8.598;2023-01-23T03:19:28;1.98;;;1.88;;
32146;SDS011;32190;49.112;8.598;2023-01-23T03:25:20;1.55;;;1.45;;
32146;SDS011;32190;49.112;8.598;2023-01-23T03:31:11;1.58;;;1.48;;
32146;SDS011;32190;49.112;8.598;2023-01-23T03:37:03;2.15;;;1.63;;
32146;SDS011;32190;49.112;8.598;2023-01-23T03:42:54;2.33;;;1.70;;
32146;SDS011;32190;49.112;8.598;2023-01-23T03:48:44;2.13;;;1.70;;
32146;SDS011;32190;49.112;8.598;2023-01-23T03:54:35;1.70;;;1.60;;
32146;SDS011;32190;49.112;8.598;2023-01-23T04:00:26;1.90;;;1.80;;
32146;SDS011;32190;49.112;8.598;2023-01-23T04:06:17;1.40;;;1.30;;
32146;SDS011;32190;49.112;8.598;2023-01-23T04:12:07;1.98;;;1.83;;
32146;SDS011;32190;49.112;8.598;2023-01-23T04:17:58;2.30;;;1.80;;
32146;SDS011;32190;49.112;8.598;2023-01-23T04:23:48;2.70;;;1.70;;
32146;SDS011;32190;49.112;8.598;2023-01-23T04:29:39;2.42;;;1.77;;
32146;SDS011;32190;49.112;8.598;2023-01-23T04:35:30;1.92;;;1.77;;
32146;SDS011;32190;49.112;8.598;2023-01-23T04:41:21;1.60;;;1.50;;
32146;SDS011;32190;49.112;8.598;2023-01-23T04:47:14;2.90;;;2.17;;
32146;SDS011;32190;49.112;8.598;2023-01-23T04:53:04;1.92;;;1.83;;
32146;SDS011;32190;49.112;8.598;2023-01-23T04:58:55;1.55;;;1.45;;
32146;SDS011;32190;49.112;8.598;2023-01-23T05:04:45;2.15;;;1.85;;
32146;SDS011;32190;49.112;8.598;2023-01-23T05:10:36;1.98;;;1.80;;
32146;SDS011;32190;49.112;8.598;2023-01-23T05:16:27;1.95;;;1.75;;
32146;SDS011;32190;49.112;8.598;2023-01-23T05:22:18;1.80;;;1.70;;
32146;SDS011;32190;49.112;8.598;2023-01-23T05:28:09;1.92;;;1.83;;
32146;SDS011;32190;49.112;8.598;2023-01-23T05:33:59;2.30;;;2.10;;
32146;SDS011;32190;49.112;8.598;2023-01-23T05:39:51;2.15;;;1.95;;
32146;SDS011;32190;49.112;8.598;2023-01-23T05:45:42;2.30;;;2.10;;
32146;SDS011;32190;49.112;8.598;2023-01-23T05:51:32;2.55;;;2.15;;
32146;SDS011;32190;49.112;8.598;2023-01-23T05:57:23;2.33;;;2.13;;
32146;SDS011;32190;49.112;8.598;2023-01-23T06:03:14;2.42;;;2.22;;
32146;SDS011;32190;49.112;8.598;2023-01-23T06:09:04;2.25;;;1.83;;
32146;SDS011;32190;49.112;8.598;2023-01-23T06:14:55;1.88;;;1.77;;
32146;SDS011;32190;49.112;8.598;2023-01-23T06:20:45;2.70;;;2.50;;
32146;SDS011;32190;49.112;8.598;2023-01-23T06:33:08;2.72;;;2.30;;
32146;SDS011;32190;49.112;8.598;2023-01-23T06:38:59;2.67;;;2.25;;
32146;SDS011;32190;49.112;8.598;2023-01-23T06:44:50;2.72;;;2.28;;
32146;SDS011;32190;49.112;8.598;2023-01-23T06:50:41;2.78;;;2.47;;
32146;SDS011;32190;49.112;8.598;2023-01-23T06:56:32;2.10;;;2.00;;
32146;SDS011;32190;49.112;8.598;2023-01-23T07:02:23;2.38;;;2.15;;
32146;SDS011;32190;49.112;8.598;2023-01-23T07:08:14;2.58;;;2.33;;
32146;SDS011;32190;49.112;8.598;2023-01-23T07:14:05;2.40;;;2.20;;
32146;SDS011;32190;49.112;8.598;2023-01-23T07:19:55;3.03;;;2.70;;
32146;SDS011;32190;49.112;8.598;2023-01-23T07:25:46;3.20;;;2.75;;
32146;SDS011;32190;49.112;8.598;2023-01-23T07:31:37;2.60;;;2.40;;
32146;SDS011;32190;49.112;8.598;2023-01-23T07:37:27;3.47;;;2.75;;
32146;SDS011;32190;49.112;8.598;2023-01-23T07:43:18;1.88;;;1.70;;
32146;SDS011;32190;49.112;8.598;2023-01-23T07:49:08;3.70;;;3.00;;
32146;SDS011;32190;49.112;8.598;2023-01-23T07:54:59;3.22;;;2.92;;
32146;SDS011;32190;49.112;8.598;2023-01-23T08:00:50;3.03;;;2.40;;
32146;SDS011;32190;49.112;8.598;2023-01-23T08:06:40;3.28;;;2.42;;
32146;SDS011;32190;49.112;8.598;2023-01-23T08:12:31;2.22;;;2.03;;
32146;SDS011;32190;49.112;8.598;2023-01-23T08:18:21;2.67;;;2.20;;
32146;SDS011;32190;49.112;8.598;2023-01-23T08:24:12;2.67;;;2.28;;
32146;SDS011;32190;49.112;8.598;2023-01-23T08:30:04;2.67;;;2.28;;
32146;SDS011;32190;49.112;8.598;2023-01-23T08:35:56;2.88;;;2.47;;
32146;SDS011;32190;49.112;8.598;2023-01-23T08:41:47;3.85;;;2.92;;
32146;SDS011;32190;49.112;8.598;2023-01-23T08:47:38;3.70;;;2.85;;
32146;SDS011;32190;49.112;8.598;2023-01-23T08:53:28;3.50;;;2.47;;
32146;SDS011;32190;49.112;8.598;2023-01-23T08:59:19;3.55;;;2.80;;
32146;SDS011;32190;49.112;8.598;2023-01-23T09:05:10;3.20;;;2.78;;
32146;SDS011;32190;49.112;8.598;2023-01-23T09:11:02;3.60;;;2.67;;
32146;SDS011;32190;49.112;8.598;2023-01-23T09:16:54;3.67;;;3.08;;
32146;SDS011;32190;49.112;8.598;2023-01-23T09:22:44;3.83;;;3.20;;
32146;SDS011;32190;49.112;8.598;2023-01-23T09:28:35;5.28;;;4.05;;
32146;SDS011;32190;49.112;8.598;2023-01-23T09:34:31;4.47;;;3.72;;
32146;SDS011;32190;49.112;8.598;2023-01-23T09:40:22;4.88;;;3.42;;
32146;SDS011;32190;49.112;8.598;2023-01-23T09:46:21;4.88;;;3.67;;
32146;SDS011;32190;49.112;8.598;2023-01-23T09:52:43;3.97;;;2.95;;
32146;SDS011;32190;49.112;8.598;2023-01-23T09:58:40;4.13;;;3.25;;
32146;SDS011;32190;49.112;8.598;2023-01-23T10:04:36;4.53;;;3.10;;
32146;SDS011;32190;49.112;8.598;2023-01-23T10:23:15;5.95;;;4.13;;
32146;SDS011;32190;49.112;8.598;2023-01-23T10:29:37;3.63;;;3.08;;
32146;SDS011;32190;49.112;8.598;2023-01-23T10:35:35;6.28;;;3.35;;
32146;SDS011;32190;49.112;8.598;2023-01-23T10:41:42;3.80;;;2.80;;
32146;SDS011;32190;49.112;8.598;2023-01-23T10:47:35;3.90;;;3.20;;
32146;SDS011;32190;49.112;8.598;2023-01-23T10:53:34;2.90;;;2.33;;
32146;SDS011;32190;49.112;8.598;2023-01-23T11:11:58;6.20;;;3.80;;
32146;SDS011;32190;49.112;8.598;2023-01-23T11:17:50;5.45;;;3.92;;
32146;SDS011;32190;49.112;8.598;2023-01-23T11:23:41;3.75;;;3.15;;
32146;SDS011;32190;49.112;8.598;2023-01-23T11:35:59;3.90;;;2.90;;
32146;SDS011;32190;49.112;8.598;2023-01-23T11:41:55;3.67;;;2.88;;
32146;SDS011;32190;49.112;8.598;2023-01-23T11:59:57;7.05;;;4.72;;
32146;SDS011;32190;49.112;8.598;2023-01-23T12:12:31;6.07;;;4.35;;
32146;SDS011;32190;49.112;8.598;2023-01-23T12:19:11;5.18;;;3.95;;
32146;SDS011;32190;49.112;8.598;2023-01-23T12:38:08;2.80;;;2.50;;
32146;SDS011;32190;49.112;8.598;2023-01-23T12:44:56;4.10;;;2.92;;
32146;SDS011;32190;49.112;8.598;2023-01-23T12:51:00;5.93;;;3.83;;
32146;SDS011;32190;49.112;8.598;2023-01-23T12:57:16;6.15;;;4.32;;
32146;SDS011;32190;49.112;8.598;2023-01-23T13:03:33;4.88;;;3.53;;
32146;SDS011;32190;49.112;8.598;2023-01-23T13:09:40;5.57;;;3.72;;
32146;SDS011;32190;49.112;8.598;2023-01-23T13:15:36;3.92;;;3.22;;
32146;SDS011;32190;49.112;8.598;2023-01-23T13:21:33;4.55;;;3.33;;
32146;SDS011;32190;49.112;8.598;2023-01-23T13:33:48;3.15;;;2.85;;
32146;SDS011;32190;49.112;8.598;2023-01-23T13:39:40;4.53;;;2.97;;
32146;SDS011;32190;49.112;8.598;2023-01-23T13:52:45;3.85;;;3.00;;
32146;SDS011;32190;49.112;8.598;2023-01-23T13:59:07;3.33;;;2.33;;
32146;SDS011;32190;49.112;8.598;2023-01-23T14:05:04;4.03;;;3.05;;
32146;SDS011;32190;49.112;8.598;2023-01-23T14:11:14;4.47;;;3.33;;
32146;SDS011;32190;49.112;8.598;2023-01-23T14:17:05;3.20;;;2.55;;
32146;SDS011;32190;49.112;8.598;2023-01-23T14:22:57;4.97;;;3.75;;
32146;SDS011;32190;49.112;8.598;2023-01-23T14:28:51;3.33;;;2.25;;
32146;SDS011;32190;49.112;8.598;2023-01-23T14:34:46;3.35;;;2.72;;
32146;SDS011;32190;49.112;8.598;2023-01-23T14:40:39;3.45;;;3.15;;
32146;SDS011;32190;49.112;8.598;2023-01-23T14:46:34;2.65;;;2.42;;
32146;SDS011;32190;49.112;8.598;2023-01-23T14:52:28;2.67;;;2.45;;
32146;SDS011;32190;49.112;8.598;2023-01-23T14:58:21;5.22;;;3.58;;
32146;SDS011;32190;49.112;8.598;2023-01-23T15:04:20;2.92;;;2.63;;
32146;SDS011;32190;49.112;8.598;2023-01-23T15:10:17;2.20;;;1.98;;
32146;SDS011;32190;49.112;8.598;2023-01-23T15:16:34;2.90;;;2.45;;
32146;SDS011;32190;49.112;8.598;2023-01-23T15:22:27;4.60;;;2.40;;
32146;SDS011;32190;49.112;8.598;2023-01-23T15:28:53;2.58;;;2.38;;
32146;SDS011;32190;49.112;8.598;2023-01-23T15:35:01;3.25;;;2.58;;
32146;SDS011;32190;49.112;8.598;2023-01-23T15:41:07;3.88;;;2.75;;
32146;SDS011;32190;49.112;8.598;2023-01-23T15:47:01;3.55;;;2.83;;
32146;SDS011;32190;49.112;8.598;2023-01-23T17:00:06;2.92;;;2.63;;
32146;SDS011;32190;49.112;8.598;2023-01-23T17:06:01;2.88;;;2.47;;
32146;SDS011;32190;49.112;8.598;2023-01-23T17:11:55;2.67;;;2.35;;
32146;SDS011;32190;49.112;8.598;2023-01-23T17:17:46;3.25;;;2.95;;
32146;SDS011;32190;49.112;8.598;2023-01-23T17:23:42;4.47;;;3.65;;
32146;SDS011;32190;49.112;8.598;2023-01-23T17:29:36;5.32;;;4.18;;
32146;SDS011;32190;49.112;8.598;2023-01-23T17:35:30;3.55;;;3.08;;
32146;SDS011;32190;49.112;8.598;2023-01-23T17:41:25;3.97;;;3.15;;
32146;SDS011;32190;49.112;8.598;2023-01-23T17:47:16;6.32;;;3.58;;
32146;SDS011;32190;49.112;8.598;2023-01-23T17:53:13;3.03;;;2.70;;
32146;SDS011;32190;49.112;8.598;2023-01-23T17:59:04;2.35;;;2.15;;
32146;SDS011;32190;49.112;8.598;2023-01-23T18:04:55;3.60;;;2.97;;
32146;SDS011;32190;49.112;8.598;2023-01-23T18:17:46;3.33;;;2.58;;
32146;SDS011;32190;49.112;8.598;2023-01-23T18:49:11;3.33;;;2.78;;
32146;SDS011;32190;49.112;8.598;2023-01-23T18:55:48;3.70;;;2.83;;
32146;SDS011;32190;49.112;8.598;2023-01-23T19:08:27;3.92;;;2.58;;
32146;SDS011;32190;49.112;8.598;2023-01-23T19:20:38;3.05;;;2.33;;
32146;SDS011;32190;49.112;8.598;2023-01-23T19:26:36;3.15;;;2.78;;
32146;SDS011;32190;49.112;8.598;2023-01-23T19:32:28;3.38;;;2.63;;
32146;SDS011;32190;49.112;8.598;2023-01-23T19:38:19;3.97;;;3.47;;
32146;SDS011;32190;49.112;8.598;2023-01-23T19:44:15;3.00;;;2.70;;
32146;SDS011;32190;49.112;8.598;2023-01-23T19:50:07;4.45;;;2.97;;
32146;SDS011;32190;49.112;8.598;2023-01-23T19:56:01;3.53;;;3.10;;
32146;SDS011;32190;49.112;8.598;2023-01-23T20:01:52;2.80;;;2.53;;
32146;SDS011;32190;49.112;8.598;2023-01-23T20:07:42;3.65;;;2.80;;
32146;SDS011;32190;49.112;8.598;2023-01-23T20:13:33;3.03;;;2.72;;
32146;SDS011;32190;49.112;8.598;2023-01-23T20:19:23;3.15;;;2.83;;
32146;SDS011;32190;49.112;8.598;2023-01-23T20:25:15;3.58;;;2.97;;
32146;SDS011;32190;49.112;8.598;2023-01-23T20:31:10;2.90;;;2.70;;
32146;SDS011;32190;49.112;8.598;2023-01-23T20:37:01;3.25;;;2.67;;
32146;SDS011;32190;49.112;8.598;2023-01-23T20:42:52;4.38;;;2.67;;
32146;SDS011;32190;49.112;8.598;2023-01-23T20:48:43;2.55;;;2.35;;
32146;SDS011;32190;49.112;8.598;2023-01-23T20:54:33;3.15;;;2.60;;
32146;SDS011;32190;49.112;8.598;2023-01-23T21:00:24;3.17;;;2.88;;
32146;SDS011;32190;49.112;8.598;2023-01-23T21:06:15;2.88;;;2.45;;
32146;SDS011;32190;49.112;8.598;2023-01-23T21:12:06;2.88;;;2.25;;
32146;SDS011;32190;49.112;8.598;2023-01-23T21:17:57;3.97;;;3.10;;
32146;SDS011;32190;49.112;8.598;2023-01-23T21:23:48;2.97;;;2.70;;
32146;SDS011;32190;49.112;8.598;2023-01-23T21:29:39;3.55;;;3.10;;
32146;SDS011;32190;49.112;8.598;2023-01-23T21:35:30;5.65;;;4.05;;
32146;SDS011;32190;49.112;8.598;2023-01-23T21:41:20;6.50;;;4.68;;
32146;SDS011;32190;49.112;8.598;2023-01-23T21:47:11;5.72;;;3.78;;
32146;SDS011;32190;49.112;8.598;2023-01-23T21:53:02;3.72;;;3.13;;
32146;SDS011;32190;49.112;8.598;2023-01-23T21:58:53;2.92;;;2.70;;
32146;SDS011;32190;49.112;8.598;2023-01-23T22:04:44;4.07;;;3.15;;
32146;SDS011;32190;49.112;8.598;2023-01-23T22:10:34;3.38;;;3.08;;
32146;SDS011;32190;49.112;8.598;2023-01-23T22:16:25;4.50;;;3.58;;
32146;SDS011;32190;49.112;8.598;2023-01-23T22:22:16;4.53;;;3.70;;
32146;SDS011;32190;49.112;8.598;2023-01-23T22:28:08;5.68;;;4.13;;
32146;SDS011;32190;49.112;8.598;2023-01-23T22:33:59;4.18;;;3.13;;
32146;SDS011;32190;49.112;8.598;2023-01-23T22:39:49;5.20;;;4.00;;
32146;SDS011;32190;49.112;8.598;2023-01-23T22:45:40;3.35;;;2.97;;
32146;SDS011;32190;49.112;8.598;2023-01-23T22:51:30;4.97;;;4.45;;
32146;SDS011;32190;49.112;8.598;2023-01-23T22:57:21;4.85;;;3.58;;
32146;SDS011;32190;49.112;8.598;2023-01-23T23:03:12;5.35;;;4.00;;
32146;SDS011;32190;49.112;8.598;2023-01-23T23:09:02;3.05;;;2.75;;
32146;SDS011;32190;49.112;8.598;2023-01-23T23:14:54;3.85;;;3.30;;
32146;SDS011;32190;49.112;8.598;2023-01-23T23:20:44;4.88;;;3.58;;
32146;SDS011;32190;49.112;8.598;2023-01-23T23:26:35;3.42;;;2.67;;
32146;SDS011;32190;49.112;8.598;2023-01-23T23:32:26;4.63;;;3.15;;
32146;SDS011;32190;49.112;8.598;2023-01-23T23:38:16;4.13;;;3.40;;
32146;SDS011;32190;49.112;8.598;2023-01-23T23:44:07;2.95;;;2.67;;
32146;SDS011;32190;49.112;8.598;2023-01-23T23:49:58;3.33;;;2.95;;
32146;SDS011;32190;49.112;8.598;2023-01-23T23:55:48;4.97;;;3.58;;
